Aéroport Valenciennes-Denain

LFAV · Norte, Hauts-de-France, Francia

METAR pasados LFAV · Valenciennes-Denain Airport

A continuación puedes ver los METAR de los últimos días. Selecciona un año para ver los METAR más antiguos, desde el año 2007 en adelante.

8 de diciembre de 2022

Hora Código Tiempo Temp. Visibilidad Cielo nuboso Viento METAR/SPECI
01:00
M
1 °C 6 km - 240° 240° 5 kt METAR LFQQ 080000Z AUTO 24005KT 6000 NSC 01/01 Q1014 TEMPO 2000 BR BKN003
00:30
M
1 °C 6 km - 250° 250° 6 kt METAR LFQQ 072330Z AUTO 25006KT 6000 NSC 01/00 Q1014 TEMPO 2000 BR BKN003
00:00
M
2 °C 7 km 6.600 ft 240° 240° 7 kt METAR LFQQ 072300Z AUTO 24007KT 7000 FEW034 BKN066 02/01 Q1014 TEMPO 4000 SHRA FEW005 BKN012 BKN020TCU

7 de diciembre de 2022

Hora Código Tiempo Temp. Visibilidad Cielo nuboso Viento METAR/SPECI
23:30
V
2 °C 10 km+ 3.400 ft 260° 260° 7 kt METAR LFQQ 072230Z AUTO 26007KT 9999 BKN034 BKN040 BKN062 02/02 Q1014 TEMPO 4000 SHRA FEW005 BKN012 BKN020TCU
23:00
V
2 °C 10 km+ 3.300 ft 260° 260° 7 kt METAR LFQQ 072200Z AUTO 26007KT 9999 SCT020 BKN033 BKN056 02/02 Q1015 TEMPO 4000 SHRA FEW005 BKN012 BKN020TCU
22:30
M
2 °C 9 km 2.700 ft 260° 260° 8 kt METAR LFQQ 072130Z AUTO 26008KT 9000 SCT019 BKN027 BKN035 02/01 Q1015 TEMPO 4000 SHRA FEW005 BKN012 BKN020TCU
22:00
V
1 °C 9 km 4.400 ft 260° 260° 8 kt METAR LFQQ 072100Z AUTO 26008KT 9000 SCT036 BKN044 BKN066 01/01 Q1015 TEMPO 4000 SHRA FEW005 BKN012 BKN020TCU
21:30
V
1 °C 8 km - 270° 270° 7 kt METAR LFQQ 072030Z AUTO 27007KT 8000 FEW024 SCT160 01/00 Q1015 TEMPO 4000 SHRA FEW005 BKN012 BKN020TCU
21:00
M
1 °C 7 km 17.000 ft 250° 250° 6 kt METAR LFQQ 072000Z AUTO 25006KT 7000 FEW024 BKN170 01/00 Q1016 TEMPO 4000 SHRA FEW005 BKN012 BKN020TCU
20:30
M
1 °C 6 km - 240° 240° 6 kt METAR LFQQ 071930Z AUTO 24006KT 6000 NSC 01/00 Q1016 TEMPO 4000 SHRA FEW005 BKN012 BKN020TCU
20:00
M
2 °C 5 km - 260° 260° 7 kt METAR LFQQ 071900Z AUTO 26007KT 5000 BR NSC 02/01 Q1016 TEMPO SHRA FEW005 BKN012 BKN020TCU
19:30
V
2 °C 10 km+ - 260° 260° 6 kt METAR LFQQ 071830Z AUTO 26006KT CAVOK 02/01 Q1016 TEMPO 4000 SHRA FEW005 BKN012 BKN020TCU
19:00
V
2 °C 10 km+ - 280° 280° 6 kt METAR LFQQ 071800Z AUTO 28006KT 9999 FEW037 02/02 Q1016 TEMPO 4000 SHRA FEW005 BKN012 BKN020TCU
18:30
V
3 °C 10 km+ - 270° 270° 6 kt METAR LFQQ 071730Z AUTO 27006KT 9999 FEW037 03/02 Q1016 TEMPO 4000 -SHRA BKN012 BKN020TCU
18:00
V
3 °C 10 km+ - 270° 270° 8 kt METAR LFQQ 071700Z AUTO 27008KT CAVOK 03/02 Q1017 TEMPO 4000 -SHRA BKN012 BKN020TCU
17:30
V
4 °C 10 km+ - 280° 280° 8 kt METAR LFQQ 071630Z AUTO 28008KT 9999 FEW041 04/03 Q1017 TEMPO 4000 -SHRA BKN012 BKN020TCU
17:00
V
4 °C 10 km+ - 260° 260° 6 kt METAR LFQQ 071600Z AUTO 26006KT 9999 FEW037 04/03 Q1017 TEMPO 4000 -SHRA BKN012 BKN020TCU
16:30
V
5 °C 10 km+ - 280° 280° 6 kt METAR LFQQ 071530Z AUTO 28006KT 9999 FEW018 05/03 Q1017 TEMPO 3000 -SHRA BR BKN009 BKN020TCU
16:00
M
6 °C 10 km+ 2.100 ft 280° 280° 7 kt METAR LFQQ 071500Z AUTO 28007KT 9999 SCT016 BKN021 06/03 Q1017 TEMPO 3000 -SHRA BR BKN009 BKN020TCU
15:30
M
7 °C 10 km+ 1.700 ft 310° 310° 6 kt METAR LFQQ 071430Z AUTO 31006KT 280V010 9999 BKN017 BKN023 BKN030 07/04 Q1017 TEMPO 3000 -SHRA BR BKN009 BKN020TCU
15:00
V
7 °C 10 km+ 6.400 ft 310° 310° 8 kt METAR LFQQ 071400Z AUTO 31008KT 9999 FEW016 SCT025 OVC064 07/04 Q1017 TEMPO 3000 -SHRA BR BKN009 BKN020TCU
14:30
M
6 °C 10 km+ 1.600 ft 270° 270° 5 kt METAR LFQQ 071330Z AUTO 27005KT 9999 BKN016 BKN022 BKN037 06/05 Q1018 TEMPO 3000 -SHRA BR BKN009 BKN020TCU
14:00
V
7 °C 10 km+ 3.100 ft 300° 300° 8 kt METAR LFQQ 071300Z AUTO 30008KT 9999 FEW016 SCT024 BKN031 07/04 Q1018 TEMPO 3000 -SHRA BR BKN009 BKN020TCU
13:30
M
8 °C 10 km+ 1.800 ft 270° 270° 8 kt METAR LFQQ 071230Z AUTO 27008KT 9999 SCT013 BKN018 BKN032 08/05 Q1018 TEMPO 3000 -SHRA BR BKN009 BKN020TCU
13:00
V
6 °C 10 km+ 4.700 ft 270° 270° 7 kt METAR LFQQ 071200Z AUTO 27007KT 9999 FEW011 SCT031 BKN047 06/05 Q1018 TEMPO 3000 -SHRA BR BKN013 BKN020TCU
12:30
M
6 °C 10 km+ 2.500 ft 280° 280° 5 kt METAR LFQQ 071130Z AUTO 28005KT 9999 FEW011 SCT019 BKN025 06/05 Q1019 TEMPO 3000 -SHRA BR BKN013 BKN020TCU
12:00
V
6 °C 10 km+ 4.000 ft 270° 270° 4 kt METAR LFQQ 071100Z AUTO 27004KT 9999 FEW025 SCT034 BKN040 06/04 Q1019 TEMPO 3000 -SHRA BR BKN013 BKN020TCU
11:30
V
6 °C 10 km+ 3.100 ft 330° 330° 5 kt METAR LFQQ 071030Z AUTO 33005KT 280V360 9999 -RADZ FEW011 SCT026 BKN031 06/05 Q1019 TEMPO 3000 -SHRA BR BKN013 BKN020TCU
11:00
V
6 °C 10 km+ 3.200 ft 290° 290° 7 kt METAR LFQQ 071000Z AUTO 29007KT 9999 -RA SCT016 BKN032 BKN038 06/05 Q1020 TEMPO 3000 -SHRA BR BKN013 BKN020TCU
10:30
V
5 °C 10 km+ 3.800 ft 280° 280° 7 kt METAR LFQQ 070930Z AUTO 28007KT 9999 FEW017 SCT029 OVC038 05/04 Q1020 TEMPO 3000 -SHRA BR BKN013 BKN020TCU
10:00
V
5 °C 10 km+ 3.500 ft 280° 280° 6 kt METAR LFQQ 070900Z AUTO 28006KT 9999 BKN035 BKN048 BKN070 05/04 Q1020 TEMPO 3000 -SHRA BR BKN013 BKN020TCU
09:30
V
4 °C 10 km+ 7.000 ft 270° 270° 7 kt METAR LFQQ 070830Z AUTO 27007KT 9999 FEW026/// SCT037/// BKN070/// //////TCU 04/04 Q1020 TEMPO 3000 -SHRA BR BKN013 BKN020TCU
09:00
V
5 °C 10 km+ 3.600 ft 290° 290° 7 kt METAR LFQQ 070800Z AUTO 29007KT 9999 FEW024/// BKN036/// BKN043/// ///TCU 05/04 Q1019 TEMPO 3000 -SHRA BR BKN013 BKN020TCU
08:30
V
4 °C 10 km+ 4.300 ft 280° 280° 8 kt METAR LFQQ 070730Z AUTO 28008KT 9999 FEW026 SCT033 BKN043 04/04 Q1019 TEMPO 3000 -SHRA BR BKN013 BKN020TCU
08:00
V
4 °C 10 km+ 4.100 ft 280° 280° 6 kt METAR LFQQ 070700Z AUTO 28006KT 9999 FEW025 BKN041 OVC058 04/04 Q1019 TEMPO 3000 -SHRA BR BKN013 BKN020TCU
07:30
V
4 °C 10 km+ 3.600 ft 280° 280° 7 kt METAR LFQQ 070630Z AUTO 28007KT 9999 BKN036 OVC056 04/04 Q1019 TEMPO 3000 -SHRA BR BKN013 BKN020TCU
07:00
V
4 °C 10 km+ 4.000 ft 270° 270° 5 kt METAR LFQQ 070600Z AUTO 27005KT 9999 FEW025 BKN040 BKN047 04/04 Q1019 TEMPO 3000 -SHRA BR BKN013 BKN020TCU
06:30
V
4 °C 8 km 4.000 ft 270° 270° 5 kt METAR LFQQ 070530Z AUTO 27005KT 8000 FEW027 BKN040 OVC072 04/04 Q1019 TEMPO 3000 -SHRA BR SCT010 BKN020TCU
06:00
M
4 °C 7 km 4.300 ft 260° 260° 4 kt METAR LFQQ 070500Z AUTO 26004KT 7000 SCT033 BKN043 OVC068 04/04 Q1019 TEMPO 3000 -SHRA BR SCT010 BKN020TCU
05:30
M
3 °C 6 km 4.400 ft 260° 260° 5 kt METAR LFQQ 070430Z AUTO 26005KT 6000 FEW021/// BKN044/// BKN050/// ///TCU 03/03 Q1019 TEMPO 3000 -SHRA BR
05:00
M
4 °C 6 km 3.100 ft 280° 280° 5 kt METAR LFQQ 070400Z AUTO 28005KT 6000 FEW020 SCT026 BKN031 04/03 Q1019 TEMPO 3000 -SHRA BR SCT010 BKN020TCU
04:30
M
4 °C 6 km 3.000 ft 260° 260° 7 kt METAR LFQQ 070330Z AUTO 26007KT 6000 BKN030 BKN039 OVC062 04/04 Q1019 TEMPO 3000 -SHRA BR SCT010 BKN020TCU
04:00
M
4 °C 5 km 3.600 ft 260° 260° 7 kt METAR LFQQ 070300Z AUTO 26007KT 5000 DZ BR SCT026 BKN036 BKN046 04/04 Q1020 TEMPO SCT010 BKN020TCU
03:30
M
4 °C 6 km 3.400 ft 260° 260° 8 kt METAR LFQQ 070230Z AUTO 26008KT 6000 FEW024/// OVC034/// //////TCU 04/04 Q1020 TEMPO 3000 -SHRA BR
03:00
I
4 °C 4,3 km 3.100 ft 300° 300° 6 kt METAR LFQQ 070200Z AUTO 30006KT 4300 -RA BR FEW012/// BKN031/// OVC043/// //////TCU 04/04 Q1020 NOSIG
02:30
M
4 °C 7 km 4.200 ft 250° 250° 4 kt METAR LFQQ 070130Z AUTO 25004KT 7000 FEW028/// BKN042/// OVC070/// ///TCU 04/03 Q1020 TEMPO 3000 -SHRA BR
02:00
M
3 °C 6 km 2.900 ft 270° 270° 5 kt METAR LFQQ 070100Z AUTO 27005KT 6000 -DZ BKN029 BKN035 OVC042 03/03 Q1020 TEMPO 3000 -SHRA BR SCT010 BKN020TCU
01:30
M
3 °C 5 km 2.800 ft 270° 270° 8 kt METAR LFQQ 070030Z AUTO 27008KT 5000 -RA BR FEW019 BKN028 BKN035 03/03 Q1020 TEMPO SCT010 BKN020TCU
01:00
M
3 °C 7 km 2.700 ft 270° 270° 7 kt METAR LFQQ 070000Z AUTO 27007KT 7000 -RADZ SCT021 BKN027 BKN045 03/02 Q1020 TEMPO 3000 -SHRA BR SCT010 BKN020TCU
00:30
V
2 °C 9 km 4.700 ft 260° 260° 7 kt METAR LFQQ 062330Z AUTO 26007KT 9000 FEW022 BKN047 BKN072 02/02 Q1020 TEMPO 2000 -SHRA SCT010 BKN020TCU
00:00
V
2 °C 10 km+ 4.500 ft 260° 260° 7 kt METAR LFQQ 062300Z AUTO 26007KT 9999 BKN045 BKN054 02/02 Q1020 TEMPO 2000 -SHRA SCT010 BKN020TCU

6 de diciembre de 2022

Hora Código Tiempo Temp. Visibilidad Cielo nuboso Viento METAR/SPECI
23:30
V
2 °C 8 km 3.100 ft 260° 260° 4 kt METAR LFQQ 062230Z AUTO 26004KT 8000 SCT022 BKN031 BKN041 02/02 Q1020 TEMPO 2000 -SHRA SCT010 BKN020TCU
23:00
V
2 °C 8 km 5.800 ft 240° 240° 5 kt METAR LFQQ 062200Z AUTO 24005KT 8000 FEW020 BKN058 02/02 Q1020 TEMPO 2000 -SHRA SCT010 BKN020TCU
22:30
M
3 °C 7 km 3.300 ft 280° 280° 6 kt METAR LFQQ 062130Z AUTO 28006KT 7000 SCT025 BKN033 BKN042 03/02 Q1020 TEMPO 2000 -SHRA SCT010 BKN020TCU
22:00
M
2 °C 7 km 2.700 ft 270° 270° 7 kt METAR LFQQ 062100Z AUTO 27007KT 7000 BKN027 BKN034 02/02 Q1020 TEMPO 2000 -SHRA SCT010 BKN020TCU
21:30
M
2 °C 6 km - 260° 260° 7 kt METAR LFQQ 062030Z AUTO 26007KT 6000 FEW025 02/01 Q1020 TEMPO 2000 -SHRA SCT010 BKN020TCU
21:00
V
2 °C 8 km - 260° 260° 7 kt METAR LFQQ 062000Z AUTO 26007KT 8000 NSC 02/02 Q1020 NOSIG
20:30
V
3 °C 9 km - 250° 250° 6 kt METAR LFQQ 061930Z AUTO 25006KT 9000 FEW046 03/02 Q1020 NOSIG
20:00
V
4 °C 10 km+ 4.400 ft 260° 260° 6 kt METAR LFQQ 061900Z AUTO 26006KT 9999 FEW029 BKN044 04/03 Q1020 NOSIG
19:30
V
4 °C 10 km+ 4.700 ft 270° 270° 6 kt METAR LFQQ 061830Z AUTO 27006KT 9999 SCT028 BKN047 04/03 Q1020 NOSIG
19:00
V
4 °C 10 km+ 4.800 ft 260° 260° 7 kt METAR LFQQ 061800Z AUTO 26007KT 9999 FEW035 OVC048 04/03 Q1020 NOSIG
18:30
V
5 °C 10 km+ 4.600 ft 270° 270° 5 kt METAR LFQQ 061730Z AUTO 27005KT 9999 SCT039 OVC046 05/04 Q1020 TEMPO 3000 SHRA SCT010 BKN020TCU
18:00
V
4 °C 10 km+ 3.900 ft 290° 290° 4 kt METAR LFQQ 061700Z AUTO 29004KT 9999 FEW027 BKN039 BKN045 04/03 Q1021 TEMPO 3000 SHRA SCT010 BKN020TCU
17:30
V
5 °C 10 km+ 4.100 ft 290° 290° 5 kt METAR LFQQ 061630Z AUTO 29005KT 9999 FEW035 BKN041 BKN054 05/03 Q1020 TEMPO 3000 SHRA SCT010 BKN020TCU
17:00
V
5 °C 10 km+ - 290° 290° 6 kt METAR LFQQ 061600Z AUTO 29006KT CAVOK 05/03 Q1020 TEMPO 3000 SHRA SCT010 BKN020TCU
16:30
V
6 °C 10 km+ - 280° 280° 4 kt METAR LFQQ 061530Z AUTO 28004KT CAVOK 06/04 Q1020 TEMPO 3000 SHRA SCT010 BKN020TCU
16:00
V
7 °C 10 km+ - 290° 290° 6 kt METAR LFQQ 061500Z AUTO 29006KT CAVOK 07/04 Q1020 TEMPO 3000 SHRA SCT010 BKN020TCU
15:30
V
7 °C 10 km+ - 290° 290° 4 kt METAR LFQQ 061430Z AUTO 29004KT CAVOK 07/03 Q1020 TEMPO 3000 SHRA SCT010 BKN020TCU
15:00
V
8 °C 10 km+ - 310° 310° 4 kt METAR LFQQ 061400Z AUTO 31004KT 280V340 CAVOK 08/04 Q1020 NOSIG
14:30
V
8 °C 10 km+ - 280° 280° 5 kt METAR LFQQ 061330Z AUTO 28005KT 9999 FEW015 08/04 Q1021 NOSIG
14:00
V
7 °C 10 km+ - 260° 260° 6 kt METAR LFQQ 061300Z AUTO 26006KT 9999 FEW009 07/05 Q1021 NOSIG
13:30
V
7 °C 10 km+ - 260° 260° 5 kt METAR LFQQ 061230Z AUTO 26005KT 9999 FEW010 07/05 Q1021 NOSIG
13:00
V
7 °C 10 km+ - 270° 270° 4 kt METAR LFQQ 061200Z AUTO 27004KT 230V320 CAVOK 07/05 Q1021 NOSIG
12:30
V
6 °C 10 km+ 4.600 ft Var Var 1 kt METAR LFQQ 061130Z AUTO VRB01KT 9999 FEW038 BKN046 BKN054 06/04 Q1021 NOSIG
12:00
V
6 °C 10 km+ 3.500 ft 360° 360° 5 kt METAR LFQQ 061100Z AUTO 36005KT 9999 BKN035 BKN041 OVC048 06/05 Q1022 NOSIG
11:30
V
5 °C 10 km+ 4.800 ft 350° 350° 4 kt METAR LFQQ 061030Z AUTO 35004KT 9999 SCT038 OVC048 05/05 Q1022 NOSIG
11:00
V
5 °C 10 km+ 4.900 ft Var Var 3 kt METAR LFQQ 061000Z AUTO VRB03KT 9999 SCT041 BKN049 05/05 Q1022 NOSIG
10:30
M
4 °C 5 km 4.400 ft Var 000° 0 kt METAR LFQQ 060930Z AUTO 00000KT 5000 BR OVC044 04/04 Q1021 NOSIG
10:00
I
3 °C 4,8 km 4.300 ft Var Var 1 kt METAR LFQQ 060900Z AUTO VRB01KT 4800 BR BKN043 03/03 Q1021 BECMG 6000 NSW
09:30
I
2 °C 2,9 km - 320° 320° 4 kt METAR LFQQ 060830Z AUTO 32004KT 2900 BR SCT043 02/02 Q1021 BECMG 6000 NSW
09:00
L
2 °C 900 m - 310° 310° 3 kt METAR LFQQ 060800Z AUTO 31003KT 1000 0900 R26/0900U R08/1800U BCFG NSC 02/02 Q1021 BECMG 6000 NSW
08:30
I
2 °C 1,7 km - Var Var 1 kt METAR LFQQ 060730Z AUTO VRB01KT 3800 1700 BR FEW040 02/02 Q1021 BECMG 6000 NSW
08:00
M
3 °C 7 km 3.900 ft 340° 340° 4 kt METAR LFQQ 060700Z AUTO 34004KT 7000 BKN039 03/03 Q1021 TEMPO 0500 BCFG
07:30
M
3 °C 6 km - 330° 330° 4 kt METAR LFQQ 060630Z AUTO 33004KT 6000 FEW038 03/02 Q1021 TEMPO 0500 BCFG
07:00
M
3 °C 7 km - 340° 340° 6 kt METAR LFQQ 060600Z AUTO 34006KT 7000 NSC 03/02 Q1020 TEMPO 0500 BCFG
06:30
M
3 °C 7 km - 340° 340° 6 kt METAR LFQQ 060530Z AUTO 34006KT 7000 FEW041 03/03 Q1020 TEMPO 2000 BR OVC003
06:00
M
3 °C 7 km - 340° 340° 4 kt METAR LFQQ 060500Z AUTO 34004KT 7000 FEW043 03/03 Q1020 TEMPO 2000 BR OVC003
05:30
V
4 °C 8 km - 330° 330° 6 kt METAR LFQQ 060430Z AUTO 33006KT 8000 NSC 04/03 Q1021 TEMPO 2000 BR OVC003
05:00
V
4 °C 10 km+ - 340° 340° 5 kt METAR LFQQ 060400Z AUTO 34005KT CAVOK 04/04 Q1021 TEMPO 2000 BR OVC003
04:30
V
5 °C 10 km+ - 320° 320° 3 kt METAR LFQQ 060330Z AUTO 32003KT CAVOK 05/04 Q1021 TEMPO 2000 BR OVC003
04:00
V
5 °C 10 km+ 5.400 ft 320° 320° 3 kt METAR LFQQ 060300Z AUTO 32003KT 9999 FEW036 OVC054 05/04 Q1021 TEMPO 2000 BR OVC003
03:30
V
5 °C 9 km 5.400 ft 320° 320° 5 kt METAR LFQQ 060230Z AUTO 32005KT 9000 FEW040 OVC054 05/04 Q1021 TEMPO 2000 BR OVC003
03:00
V
5 °C 8 km 3.800 ft 310° 310° 5 kt METAR LFQQ 060200Z AUTO 31005KT 8000 FEW014 BKN038 OVC054 05/04 Q1021 TEMPO 2000 BR OVC003
02:30
V
5 °C 8 km 3.600 ft 310° 310° 4 kt METAR LFQQ 060130Z AUTO 31004KT 8000 BKN036 OVC054 05/04 Q1021 TEMPO 2000 BR OVC003
02:00
V
5 °C 8 km 5.600 ft 320° 320° 4 kt METAR LFQQ 060100Z AUTO 32004KT 8000 FEW038 OVC056 05/04 Q1021 TEMPO 2000 BR OVC003
01:30
M
4 °C 7 km - 330° 330° 3 kt METAR LFQQ 060030Z AUTO 33003KT 7000 NSC 04/04 Q1021 TEMPO 0300 FG VV///
01:00
M
5 °C 7 km 4.300 ft 330° 330° 4 kt METAR LFQQ 060000Z AUTO 33004KT 7000 BKN043 OVC058 05/04 Q1021 TEMPO 0300 FG VV///
00:30
M
4 °C 7 km 5.600 ft 320° 320° 5 kt METAR LFQQ 052330Z AUTO 32005KT 7000 SCT045 OVC056 04/04 Q1021 TEMPO 0300 FG VV///
00:00
I
4 °C 4,8 km 3.700 ft 320° 320° 5 kt METAR LFQQ 052300Z AUTO 32005KT 4800 BR FEW013 BKN037 OVC044 04/04 Q1021 TEMPO 0300 FG VV///

5 de diciembre de 2022

Hora Código Tiempo Temp. Visibilidad Cielo nuboso Viento METAR/SPECI
23:30
I
4 °C 4 km 1.300 ft 300° 300° 6 kt METAR LFQQ 052230Z AUTO 30006KT 4000 BR BKN013 OVC036 04/04 Q1021 TEMPO 0300 FG VV///
23:00
I
4 °C 4,8 km 3.700 ft 300° 300° 5 kt METAR LFQQ 052200Z AUTO 30005KT 4800 BR FEW018 OVC037 04/04 Q1021 TEMPO 0300 FG VV///
22:30
I
4 °C 4,5 km 3.900 ft 320° 320° 5 kt METAR LFQQ 052130Z AUTO 32005KT 4500 BR FEW004 SCT016 BKN039 04/04 Q1021 TEMPO 0300 FG VV///
22:00
L
4 °C 4 km 300 ft 300° 300° 6 kt METAR LFQQ 052100Z AUTO 30006KT 4000 BR BKN003 BKN028 OVC041 04/04 Q1021 BECMG 2000 BR
21:30
L
4 °C 3,4 km 300 ft 300° 300° 6 kt METAR LFQQ 052030Z AUTO 30006KT 3400 BR OVC003 04/04 Q1021 BECMG 2000 BR
21:00
L
4 °C 3 km 300 ft 280° 280° 5 kt METAR LFQQ 052000Z AUTO 28005KT 3000 BR OVC003 04/04 Q1021 NOSIG
20:30
I
4 °C 2,8 km 500 ft 280° 280° 4 kt METAR LFQQ 051930Z AUTO 28004KT 2800 BR OVC005 04/04 Q1021 NOSIG
20:00
I
4 °C 3,3 km 500 ft 300° 300° 4 kt METAR LFQQ 051900Z AUTO 30004KT 3300 BR OVC005 04/04 Q1021 BECMG 2000 BR
19:30
I
4 °C 3,9 km 700 ft 290° 290° 4 kt METAR LFQQ 051830Z AUTO 29004KT 3900 BR OVC007 04/04 Q1021 BECMG 2000 BR OVC002
19:00
I
4 °C 4,9 km 800 ft 320° 320° 3 kt METAR LFQQ 051800Z AUTO 32003KT 4900 BR BKN008 BKN014 OVC052 04/04 Q1021 TEMPO 2500 DZ BR OVC004
18:30
I
4 °C 5 km 600 ft 330° 330° 3 kt METAR LFQQ 051730Z AUTO 33003KT 5000 BR BKN006 OVC011 04/04 Q1021 TEMPO 2500 DZ BR OVC003
18:00
I
4 °C 5 km 500 ft 330° 330° 3 kt METAR LFQQ 051700Z AUTO 33003KT 5000 BR OVC005 04/04 Q1021 TEMPO 2500 DZ BR
17:30
L
4 °C 4,6 km 400 ft 340° 340° 4 kt METAR LFQQ 051630Z AUTO 34004KT 4600 -RADZ BR OVC004 04/04 Q1020 TEMPO 2500 DZ BR
17:00
L
4 °C 3,4 km 400 ft 320° 320° 4 kt METAR LFQQ 051600Z AUTO 32004KT 3400 -RADZ BR OVC004 04/04 Q1020 TEMPO 2500 DZ BR
16:30
L
4 °C 2,8 km 400 ft 320° 320° 3 kt METAR LFQQ 051530Z AUTO 32003KT 2800 BR OVC004 04/04 Q1020 TEMPO DZ
16:00
L
4 °C 2,7 km 400 ft 320° 320° 3 kt METAR LFQQ 051500Z AUTO 32003KT 2700 BR OVC004 04/04 Q1020 TEMPO DZ
15:30
L
4 °C 2,4 km 300 ft 320° 320° 4 kt METAR LFQQ 051430Z AUTO 32004KT 2400 BR OVC003 04/03 Q1020 TEMPO DZ
15:00
L
4 °C 2,6 km 400 ft 310° 310° 4 kt METAR LFQQ 051400Z AUTO 31004KT 2600 BR BKN004 OVC008 04/03 Q1020 TEMPO DZ
14:30
I
4 °C 4,2 km 500 ft 330° 330° 4 kt METAR LFQQ 051330Z AUTO 33004KT 4200 BR OVC005 04/03 Q1020 TEMPO 2500 DZ BR
14:00
I
3 °C 4,5 km 600 ft 320° 320° 3 kt METAR LFQQ 051300Z AUTO 32003KT 4500 BR OVC006 03/03 Q1020 TEMPO 2500 DZ BR OVC003
13:30
I
3 °C 4,5 km 500 ft 310° 310° 3 kt METAR LFQQ 051230Z AUTO 31003KT 280V340 4500 BR BKN005 OVC010 03/03 Q1020 TEMPO 2500 DZ BR
13:00
L
3 °C 3,4 km 300 ft 310° 310° 4 kt METAR LFQQ 051200Z AUTO 31004KT 3400 BR OVC003 03/03 Q1020 TEMPO 2500 DZ BR
12:30
L
2 °C 1,8 km 300 ft 310° 310° 3 kt METAR LFQQ 051130Z AUTO 31003KT 1800 BR OVC003 02/02 Q1020 TEMPO DZ
12:00
L
2 °C 2,4 km 400 ft 320° 320° 4 kt METAR LFQQ 051100Z AUTO 32004KT 2400 -DZ BR BKN004 OVC008 02/02 Q1020 TEMPO 3000 DZ BR
11:30
I
2 °C 2,9 km 900 ft 330° 330° 4 kt METAR LFQQ 051030Z AUTO 33004KT 2900 -DZ BR FEW004 OVC009 02/02 Q1020 TEMPO 3000 DZ BR OVC003
11:00
I
2 °C 4,3 km 1.300 ft 330° 330° 3 kt METAR LFQQ 051000Z AUTO 33003KT 4300 BR FEW004 OVC013 02/01 Q1020 TEMPO DZ OVC003

Nosotros y terceros seguimos tu comportamiento en Internet en nuestro sitio web con cookies. Si continúas, asumimos que estás de acuerdo con nuestra Política de cookies.